Time;durP1;ratioP1;P1;durP2;ratioP2;P2;SDS_P1;SDS_P2;PMS_P1;PMS_P2;Temp;Humidity;BMP_temperature;BMP_pressure;BME280_temperature;BME280_humidity;BME280_pressure;Samples;Min_cycle;Max_cycle;Signal;HPM_P1;HPM_P2
2021/07/22 00:02:13;;;;;;;0.75;0.75;;;;;;;22.96;39.71;98956.66;5037085;28;20021;-75
2021/07/22 00:04:39;;;;;;;0.13;0.13;;;;;;;22.92;39.85;98950.34;5037221;28;20156;-76
2021/07/22 00:07:04;;;;;;;0.30;0.30;;;;;;;22.90;39.69;98950.72;5036283;28;20396;-77
2021/07/22 00:09:30;;;;;;;0.10;0.10;;;;;;;22.90;39.88;98958.09;5037280;28;20030;-81
2021/07/22 00:11:55;;;;;;;0.03;0.03;;;;;;;22.84;39.91;98952.94;5035970;28;20032;-78
2021/07/22 00:14:20;;;;;;;0.25;0.25;;;;;;;22.81;40.11;98950.94;5036348;28;20025;-77
2021/07/22 00:16:46;;;;;;;0.00;0.00;;;;;;;22.81;39.98;98942.78;5035957;28;20029;-76
2021/07/22 00:19:12;;;;;;;0.03;0.03;;;;;;;22.79;40.15;98946.97;5035761;28;20040;-76
2021/07/22 00:21:38;;;;;;;0.03;0.03;;;;;;;22.78;40.26;98950.88;5035942;28;20030;-76
2021/07/22 00:24:04;;;;;;;0.20;0.20;;;;;;;22.80;40.38;98960.28;5037148;28;20037;-77
2021/07/22 00:26:29;;;;;;;0.65;0.65;;;;;;;22.73;40.42;98945.69;5035127;28;20076;-76
2021/07/22 00:28:59;;;;;;;0.03;0.03;;;;;;;22.70;40.45;98952.66;5035370;28;20524;-76
2021/07/22 00:31:25;;;;;;;0.00;0.00;;;;;;;22.62;40.73;98953.66;5035683;28;20053;-77
2021/07/22 00:33:50;;;;;;;0.10;0.10;;;;;;;22.60;40.74;98947.81;5035480;28;20057;-75
2021/07/22 00:36:16;;;;;;;0.00;0.00;;;;;;;22.60;41.02;98951.31;5037110;28;20028;-76
2021/07/22 00:38:42;;;;;;;0.10;0.10;;;;;;;22.53;41.03;98953.88;5035672;28;20526;-76
2021/07/22 00:41:10;;;;;;;0.40;0.40;;;;;;;22.47;41.23;98958.03;5036761;28;20025;-75
2021/07/22 00:43:38;;;;;;;0.03;0.03;;;;;;;22.45;41.13;98957.59;5037098;28;20041;-75
2021/07/22 00:46:03;;;;;;;0.55;0.55;;;;;;;22.39;41.52;98968.03;5036423;28;20467;-76
2021/07/22 00:48:29;;;;;;;0.47;0.47;;;;;;;22.29;41.86;98965.81;5035683;28;20030;-74
2021/07/22 00:50:54;;;;;;;0.40;0.40;;;;;;;22.19;41.87;98965.25;5036530;28;20026;-73
2021/07/22 00:53:20;;;;;;;0.10;0.10;;;;;;;22.04;41.97;98958.66;5032843;28;20021;-74
2021/07/22 00:55:45;;;;;;;0.00;0.00;;;;;;;21.94;42.18;98963.91;5033595;28;20030;-75
2021/07/22 00:58:10;;;;;;;0.90;0.90;;;;;;;21.80;42.53;98970.59;5033831;28;20036;-75
2021/07/22 01:00:36;;;;;;;0.30;0.30;;;;;;;21.65;42.93;98964.00;5033547;28;20026;-75
2021/07/22 01:03:01;;;;;;;0.75;0.75;;;;;;;21.54;43.12;98968.38;5033359;28;20038;-75
2021/07/22 01:05:27;;;;;;;0.05;0.05;;;;;;;21.36;43.57;98957.84;5033749;28;20028;-75
2021/07/22 01:07:52;;;;;;;0.52;0.52;;;;;;;21.27;43.85;98955.28;5033581;28;20467;-76
2021/07/22 01:10:17;;;;;;;0.17;0.17;;;;;;;21.26;43.87;98953.72;5032335;28;20026;-75
2021/07/22 01:12:43;;;;;;;0.15;0.15;;;;;;;21.20;44.19;98951.59;5033052;28;20390;-73
2021/07/22 01:15:09;;;;;;;0.63;0.63;;;;;;;21.20;44.38;98952.41;5033440;28;20033;-75
2021/07/22 01:17:46;;;;;;;0.75;0.28;;;;;;;21.25;44.36;98959.50;5031795;28;20033;-76
2021/07/22 01:20:19;;;;;;;0.38;0.38;;;;;;;21.24;44.38;98950.56;5033938;28;20029;-77
2021/07/22 01:22:46;;;;;;;0.95;0.85;;;;;;;21.28;44.35;98962.31;5032095;28;20036;-76
2021/07/22 01:25:12;;;;;;;0.35;0.35;;;;;;;21.30;44.40;98956.53;5033421;28;20072;-76
2021/07/22 01:27:39;;;;;;;0.20;0.20;;;;;;;21.33;44.70;98963.19;5032178;28;20102;-76
2021/07/22 01:30:05;;;;;;;0.47;0.40;;;;;;;21.35;44.42;98961.72;5032947;28;20098;-78
2021/07/22 01:32:31;;;;;;;0.22;0.22;;;;;;;21.35;44.33;98960.91;5031144;28;20033;-75
2021/07/22 01:34:57;;;;;;;0.20;0.20;;;;;;;21.34;44.49;98967.50;5032707;28;20033;-75
2021/07/22 01:37:22;;;;;;;0.25;0.25;;;;;;;21.31;44.62;98957.31;5032440;28;20025;-76
2021/07/22 01:39:48;;;;;;;0.52;0.52;;;;;;;21.24;44.92;98958.72;5032043;28;20031;-76
2021/07/22 01:42:13;;;;;;;5.18;0.52;;;;;;;21.25;44.62;98965.75;5032966;28;20032;-76
2021/07/22 01:44:39;;;;;;;0.08;0.08;;;;;;;21.23;44.71;98965.28;5032543;28;20111;-76
2021/07/22 01:47:04;;;;;;;0.55;0.55;;;;;;;21.16;45.14;98973.25;5032533;28;20048;-76
2021/07/22 01:49:30;;;;;;;0.20;0.20;;;;;;;21.09;45.13;98962.19;5032553;28;20116;-75
2021/07/22 01:51:56;;;;;;;2.92;1.35;;;;;;;20.97;45.46;98984.81;5032935;28;20032;-74
2021/07/22 01:54:21;;;;;;;0.13;0.13;;;;;;;20.83;46.08;98976.28;5032166;28;20489;-74
2021/07/22 01:56:47;;;;;;;1.48;0.80;;;;;;;20.67;46.53;98976.19;5031460;28;20033;-74
2021/07/22 01:59:12;;;;;;;0.30;0.30;;;;;;;20.47;46.99;98981.47;5032958;28;20057;-73
2021/07/22 02:01:38;;;;;;;0.13;0.13;;;;;;;20.38;47.26;98986.22;5032659;28;20481;-75
2021/07/22 02:04:03;;;;;;;0.52;0.52;;;;;;;20.28;47.47;98982.84;5031635;28;20481;-74
2021/07/22 02:06:30;;;;;;;0.47;0.47;;;;;;;20.24;47.61;98981.97;5032525;28;20083;-75
2021/07/22 02:08:56;;;;;;;0.65;0.28;;;;;;;20.21;47.79;98976.41;5030916;28;20029;-75
2021/07/22 02:11:21;;;;;;;0.20;0.20;;;;;;;20.22;47.87;98975.28;5031883;28;20036;-73
2021/07/22 02:13:47;;;;;;;0.15;0.15;;;;;;;20.23;48.06;98990.44;5031998;28;20036;-74
2021/07/22 02:16:13;;;;;;;0.20;0.20;;;;;;;20.26;48.09;98985.13;5032254;28;20053;-75
2021/07/22 02:18:38;;;;;;;0.80;0.80;;;;;;;20.24;47.97;98984.66;5032298;28;20037;-75
2021/07/22 02:21:10;;;;;;;0.10;0.10;;;;;;;20.31;48.07;98992.22;5032306;28;20470;-76
2021/07/22 02:23:35;;;;;;;0.30;0.30;;;;;;;20.34;48.12;98994.28;5032113;28;20036;-75
2021/07/22 02:26:05;;;;;;;0.35;0.35;;;;;;;20.41;48.01;98999.09;5030200;28;20045;-76
2021/07/22 02:28:31;;;;;;;0.10;0.10;;;;;;;20.44;47.86;98993.78;5032359;28;20029;-75
2021/07/22 02:30:56;;;;;;;0.08;0.08;;;;;;;20.52;47.96;98994.81;5032106;28;20464;-73
2021/07/22 02:33:22;;;;;;;0.10;0.10;;;;;;;20.55;48.03;98998.75;5030712;28;20462;-73
2021/07/22 02:35:47;;;;;;;0.30;0.30;;;;;;;20.56;47.89;99001.13;5031655;28;20104;-75
2021/07/22 02:38:13;;;;;;;0.40;0.40;;;;;;;20.56;47.88;99006.53;5031688;28;20021;-74
2021/07/22 02:40:39;;;;;;;0.90;0.90;;;;;;;20.53;48.08;99004.53;5031176;28;20401;-73
2021/07/22 02:43:05;;;;;;;0.52;0.52;;;;;;;20.46;48.33;99005.09;5031368;28;20068;-73
2021/07/22 02:45:30;;;;;;;0.00;0.00;;;;;;;20.45;48.39;99008.16;5031818;28;20481;-73
2021/07/22 02:47:56;;;;;;;0.30;0.30;;;;;;;20.44;48.38;99009.31;5031188;28;20117;-72
2021/07/22 02:50:22;;;;;;;1.05;0.17;;;;;;;20.42;48.28;99009.66;5031054;28;20033;-73
2021/07/22 02:52:47;;;;;;;0.98;0.98;;;;;;;20.44;48.41;99015.50;5031453;28;20033;-74
2021/07/22 02:55:13;;;;;;;0.30;0.30;;;;;;;20.48;48.24;99010.19;5030940;28;20102;-74
2021/07/22 02:57:39;;;;;;;0.00;0.00;;;;;;;20.54;48.39;99011.53;5031428;28;20025;-74
2021/07/22 03:00:05;;;;;;;0.10;0.10;;;;;;;20.55;48.43;99001.47;5029805;28;20033;-74
2021/07/22 03:02:31;;;;;;;0.63;0.63;;;;;;;20.55;48.28;99001.47;5031837;28;20032;-73
2021/07/22 03:04:56;;;;;;;0.10;0.10;;;;;;;20.52;48.50;99000.22;5031297;28;20495;-73
2021/07/22 03:07:21;;;;;;;0.20;0.20;;;;;;;20.53;48.34;99009.97;5031471;28;20029;-75
2021/07/22 03:09:47;;;;;;;0.30;0.30;;;;;;;20.52;48.50;99010.28;5029866;28;20040;-74
2021/07/22 03:12:12;;;;;;;0.20;0.20;;;;;;;20.56;48.71;99011.19;5030745;28;20025;-75
2021/07/22 03:14:38;;;;;;;0.80;0.30;;;;;;;20.59;48.60;99016.75;5030531;28;20025;-75
2021/07/22 03:17:03;;;;;;;0.10;0.10;;;;;;;20.65;48.77;99020.00;5030712;28;20049;-74
2021/07/22 03:19:29;;;;;;;0.10;0.10;;;;;;;20.81;48.29;99024.75;5030988;28;20037;-75
2021/07/22 03:21:54;;;;;;;0.00;0.00;;;;;;;20.97;47.88;99016.63;5031310;28;20033;-75
2021/07/22 03:24:20;;;;;;;0.20;0.20;;;;;;;21.15;47.47;99023.34;5031092;28;20404;-74
2021/07/22 03:26:45;;;;;;;0.20;0.20;;;;;;;21.31;47.09;99025.31;5030819;28;20025;-74
2021/07/22 03:29:10;;;;;;;0.13;0.13;;;;;;;21.50;46.77;99030.88;5030900;28;20029;-73
2021/07/22 03:31:36;;;;;;;1.63;0.25;;;;;;;21.78;46.03;99029.25;5030846;28;20049;-73
2021/07/22 03:34:01;;;;;;;1.15;1.02;;;;;;;21.99;45.69;99031.69;5030394;28;20032;-74
2021/07/22 03:36:26;;;;;;;0.30;0.30;;;;;;;22.22;45.23;99020.94;5030738;28;20021;-74
2021/07/22 03:38:52;;;;;;;0.45;0.45;;;;;;;22.44;44.74;99016.78;5030375;28;20111;-75
2021/07/22 03:41:18;;;;;;;0.50;0.50;;;;;;;22.70;44.09;99026.25;5030736;28;20037;-74
2021/07/22 03:43:44;;;;;;;0.10;0.10;;;;;;;22.94;43.64;99021.69;5030700;28;20521;-73
2021/07/22 03:46:09;;;;;;;0.60;0.60;;;;;;;23.20;43.43;99028.44;5028593;28;20145;-73
2021/07/22 03:48:35;;;;;;;0.28;0.28;;;;;;;23.48;42.76;99033.59;5030319;28;20029;-75
2021/07/22 03:51:00;;;;;;;0.20;0.20;;;;;;;23.79;42.12;99031.78;5028936;28;20481;-75
2021/07/22 03:53:26;;;;;;;0.10;0.10;;;;;;;24.11;41.60;99035.03;5029302;28;20155;-75
2021/07/22 03:55:51;;;;;;;0.10;0.10;;;;;;;24.41;40.88;99030.78;5030525;28;20075;-74
2021/07/22 03:58:17;;;;;;;0.30;0.30;;;;;;;24.79;40.40;99034.41;5030866;28;20025;-77
2021/07/22 04:00:43;;;;;;;0.28;0.28;;;;;;;25.13;39.59;99036.38;5030716;28;20550;-76
2021/07/22 04:03:08;;;;;;;0.00;0.00;;;;;;;25.45;38.88;99024.97;5029540;28;20033;-76
2021/07/22 04:05:34;;;;;;;1.00;0.40;;;;;;;25.79;38.00;99031.13;5029074;28;20029;-76
2021/07/22 04:08:00;;;;;;;0.05;0.05;;;;;;;26.08;37.75;99038.81;5029300;28;20039;-76
2021/07/22 04:10:28;;;;;;;0.00;0.00;;;;;;;26.34;36.70;99027.63;5029266;28;20106;-75
2021/07/22 04:13:01;;;;;;;0.17;0.17;;;;;;;26.57;36.64;99037.53;5029260;28;20030;-75
2021/07/22 04:15:27;;;;;;;0.00;0.00;;;;;;;26.78;36.29;99047.06;5029331;28;20026;-77
2021/07/22 04:17:54;;;;;;;0.10;0.10;;;;;;;27.06;35.92;99038.16;5029253;28;20026;-78
2021/07/22 04:20:20;;;;;;;0.20;0.20;;;;;;;27.35;35.42;99042.91;5029454;28;20083;-77
2021/07/22 04:22:46;;;;;;;0.43;0.43;;;;;;;27.47;35.08;99045.31;5031144;28;20036;-77
2021/07/22 04:25:12;;;;;;;0.70;0.70;;;;;;;27.47;35.15;99039.81;5028992;28;20421;-76
2021/07/22 04:27:38;;;;;;;0.25;0.25;;;;;;;27.72;34.57;99050.84;5032279;28;20033;-74
2021/07/22 04:30:04;;;;;;;0.00;0.00;;;;;;;27.99;34.21;99050.44;5032560;28;20041;-80
2021/07/22 04:32:30;;;;;;;0.20;0.20;;;;;;;28.15;34.08;99055.56;5032960;28;20455;-76
2021/07/22 04:34:55;;;;;;;0.20;0.20;;;;;;;28.45;33.79;99057.03;5034221;28;20036;-76
2021/07/22 04:37:20;;;;;;;0.00;0.00;;;;;;;28.74;33.22;99054.25;5034302;28;20026;-75
2021/07/22 04:39:46;;;;;;;0.13;0.13;;;;;;;28.75;33.74;99056.59;5033922;28;20029;-75
2021/07/22 04:42:11;;;;;;;0.08;0.08;;;;;;;28.92;33.05;99062.44;5033615;28;20448;-76
2021/07/22 04:44:37;;;;;;;9.05;2.83;;;;;;;28.95;33.30;99047.84;5033936;28;20040;-76
2021/07/22 04:47:02;;;;;;;0.43;0.43;;;;;;;29.11;33.17;99061.13;5033947;28;20030;-76
2021/07/22 04:49:27;;;;;;;0.30;0.30;;;;;;;29.33;32.43;99056.34;5034213;28;20022;-76
2021/07/22 04:51:53;;;;;;;0.50;0.32;;;;;;;29.68;31.97;99053.72;5034176;28;20033;-76
2021/07/22 04:54:18;;;;;;;1.60;1.00;;;;;;;29.84;31.30;99053.19;5034274;28;20041;-76
2021/07/22 04:56:44;;;;;;;0.20;0.20;;;;;;;29.80;31.49;99060.72;5033742;28;20032;-76
2021/07/22 04:59:10;;;;;;;0.55;0.55;;;;;;;29.77;31.48;99059.56;5032429;28;20182;-76
2021/07/22 05:01:36;;;;;;;0.00;0.00;;;;;;;29.60;31.84;99065.97;5033959;28;20025;-76
2021/07/22 05:04:01;;;;;;;1.08;1.05;;;;;;;29.58;32.10;99065.59;5033463;28;20025;-76
2021/07/22 05:06:26;;;;;;;8.38;1.58;;;;;;;29.51;31.85;99069.97;5033782;28;20053;-77
2021/07/22 05:08:53;;;;;;;0.40;0.40;;;;;;;29.36;32.12;99066.53;5033484;28;20404;-76
2021/07/22 05:11:18;;;;;;;3.72;1.38;;;;;;;29.13;32.42;99078.03;5033272;28;20515;-76
2021/07/22 05:13:44;;;;;;;0.38;0.38;;;;;;;29.20;32.56;99069.75;5033586;28;20026;-77
2021/07/22 05:16:09;;;;;;;2.00;1.50;;;;;;;29.11;32.90;99088.66;5033283;28;20037;-75
2021/07/22 05:18:35;;;;;;;0.63;0.20;;;;;;;29.08;32.66;99078.47;5032217;28;20069;-77
2021/07/22 05:21:05;;;;;;;0.55;0.50;;;;;;;29.13;32.35;99088.28;5033578;28;20049;-77
2021/07/22 05:23:31;;;;;;;0.15;0.05;;;;;;;29.05;32.61;99087.53;5032452;28;20022;-76
2021/07/22 05:25:56;;;;;;;8.15;1.02;;;;;;;29.26;32.58;99088.59;5032201;28;20501;-77
2021/07/22 05:28:22;;;;;;;0.43;0.43;;;;;;;29.59;32.32;99089.22;5033893;28;20028;-77
2021/07/22 05:30:47;;;;;;;2.80;0.57;;;;;;;29.83;31.82;99084.69;5033768;28;20111;-77
2021/07/22 05:33:12;;;;;;;0.20;0.20;;;;;;;29.82;31.12;99078.41;5033032;28;20111;-77
2021/07/22 05:35:38;;;;;;;2.92;1.55;;;;;;;29.89;31.59;99087.81;5033309;28;20041;-77
2021/07/22 05:38:03;;;;;;;0.03;0.03;;;;;;;30.16;31.16;99094.31;5031060;28;20120;-78
2021/07/22 05:40:28;;;;;;;5.90;0.70;;;;;;;30.35;30.53;99084.66;5031950;28;20516;-78
2021/07/22 05:42:54;;;;;;;0.65;0.65;;;;;;;30.71;30.71;99088.25;5033401;28;20022;-78
2021/07/22 05:45:20;;;;;;;0.20;0.20;;;;;;;31.16;30.19;99088.09;5031508;28;20143;-78
2021/07/22 05:47:45;;;;;;;0.35;0.35;;;;;;;31.41;29.32;99087.00;5032936;28;20104;-78
2021/07/22 05:50:11;;;;;;;0.00;0.00;;;;;;;31.68;29.32;99081.47;5033189;28;20108;-75
2021/07/22 05:52:36;;;;;;;0.08;0.08;;;;;;;31.89;29.34;99087.84;5033381;28;20030;-78
2021/07/22 05:55:03;;;;;;;10.32;2.40;;;;;;;32.20;28.32;99096.00;5033210;28;20030;-77
2021/07/22 05:57:28;;;;;;;0.57;0.17;;;;;;;32.45;27.90;99103.91;5032688;28;20029;-78
2021/07/22 05:59:54;;;;;;;0.30;0.30;;;;;;;32.72;27.68;99098.22;5032779;28;20025;-75
2021/07/22 06:02:19;;;;;;;0.10;0.10;;;;;;;32.89;27.05;99095.56;5032210;28;20117;-77
2021/07/22 06:04:44;;;;;;;0.13;0.13;;;;;;;32.73;26.69;99101.78;5031291;28;20546;-77
2021/07/22 06:07:10;;;;;;;0.10;0.10;;;;;;;32.67;27.76;99104.25;5032842;28;20108;-77
2021/07/22 06:09:35;;;;;;;0.35;0.35;;;;;;;32.90;27.59;99097.13;5031450;28;20033;-76
2021/07/22 06:12:01;;;;;;;0.10;0.10;;;;;;;32.89;27.15;99096.31;5032350;28;20535;-77
2021/07/22 06:14:26;;;;;;;0.47;0.47;;;;;;;32.94;27.01;99102.59;5032894;28;20029;-77
2021/07/22 06:16:51;;;;;;;0.10;0.10;;;;;;;32.81;27.07;99099.66;5031129;28;20025;-77
2021/07/22 06:19:17;;;;;;;0.28;0.28;;;;;;;32.59;26.79;99102.81;5030817;28;20037;-78
2021/07/22 06:21:42;;;;;;;0.20;0.20;;;;;;;32.63;27.66;99094.44;5032835;28;20030;-78
2021/07/22 06:24:08;;;;;;;0.20;0.20;;;;;;;32.53;27.45;99094.25;5031985;28;20120;-78
2021/07/22 06:26:34;;;;;;;0.10;0.10;;;;;;;32.15;27.60;99097.28;5032654;28;20053;-77
2021/07/22 06:29:01;;;;;;;1.05;0.57;;;;;;;31.90;27.94;99090.19;5030952;28;20116;-78
2021/07/22 06:31:27;;;;;;;0.30;0.30;;;;;;;31.80;28.69;99091.16;5031150;28;20040;-77
2021/07/22 06:33:52;;;;;;;0.10;0.10;;;;;;;31.57;29.50;99091.88;5032310;28;20025;-77
2021/07/22 06:36:17;;;;;;;0.10;0.10;;;;;;;31.47;29.21;99093.63;5031893;28;20113;-77
2021/07/22 06:38:43;;;;;;;0.43;0.20;;;;;;;31.36;28.98;99106.78;5032161;28;20024;-77
2021/07/22 06:41:10;;;;;;;0.32;0.32;;;;;;;31.37;29.72;99091.78;5030251;28;20045;-77
2021/07/22 06:43:36;;;;;;;0.38;0.30;;;;;;;31.51;29.14;99094.34;5030931;28;20087;-77
2021/07/22 06:46:01;;;;;;;0.05;0.05;;;;;;;31.46;28.92;99086.50;5030455;28;20037;-78
2021/07/22 06:48:27;;;;;;;0.08;0.08;;;;;;;31.27;29.48;99091.53;5031903;28;20029;-77
2021/07/22 06:50:52;;;;;;;0.40;0.40;;;;;;;31.18;29.43;99101.53;5031354;28;20060;-77
2021/07/22 06:53:18;;;;;;;0.55;0.55;;;;;;;31.05;30.05;99101.25;5030215;28;20034;-77
2021/07/22 06:55:44;;;;;;;0.30;0.25;;;;;;;30.80;29.77;99096.84;5030401;28;20037;-76
2021/07/22 06:58:10;;;;;;;0.52;0.52;;;;;;;30.52;30.28;99092.41;5029737;28;20033;-79
2021/07/22 07:00:36;;;;;;;0.50;0.50;;;;;;;30.21;30.88;99089.53;5030333;28;20152;-78
2021/07/22 07:03:07;;;;;;;0.32;0.32;;;;;;;30.06;31.02;99092.41;5030019;28;20030;-76
2021/07/22 07:05:33;;;;;;;0.35;0.20;;;;;;;29.96;31.54;99079.53;5031544;28;20026;-76
2021/07/22 07:07:59;;;;;;;0.13;0.13;;;;;;;29.86;31.69;99090.19;5031551;28;20030;-78
2021/07/22 07:10:24;;;;;;;0.10;0.10;;;;;;;29.68;32.25;99084.03;5031244;28;20083;-76
2021/07/22 07:12:51;;;;;;;0.40;0.40;;;;;;;29.65;31.77;99093.09;5031367;28;20028;-76
2021/07/22 07:15:17;;;;;;;0.20;0.20;;;;;;;29.59;31.99;99089.22;5031243;28;20083;-76
2021/07/22 07:17:42;;;;;;;0.10;0.10;;;;;;;29.34;31.75;99090.94;5029998;28;20029;-76
2021/07/22 07:20:08;;;;;;;0.30;0.30;;;;;;;29.05;32.44;99087.53;5031404;28;20048;-76
2021/07/22 07:22:33;;;;;;;0.20;0.20;;;;;;;28.86;32.86;99097.06;5030954;28;20118;-75
2021/07/22 07:24:58;;;;;;;0.10;0.10;;;;;;;28.63;32.79;99108.50;5030654;28;20085;-75
2021/07/22 07:27:24;;;;;;;0.20;0.20;;;;;;;28.24;33.87;99102.66;5030979;28;20033;-75
2021/07/22 07:29:50;;;;;;;0.32;0.32;;;;;;;27.91;34.06;99101.84;5031422;28;20029;-77
2021/07/22 07:32:15;;;;;;;0.43;0.43;;;;;;;27.71;34.82;99106.97;5030887;28;20400;-77
2021/07/22 07:34:41;;;;;;;1.05;0.75;;;;;;;27.48;34.50;99099.06;5030857;28;20026;-77
2021/07/22 07:37:07;;;;;;;1.38;1.27;;;;;;;27.27;35.59;99106.06;5029491;28;20033;-76
2021/07/22 07:39:34;;;;;;;0.35;0.20;;;;;;;27.21;35.89;99104.84;5030613;28;20087;-75
2021/07/22 07:42:01;;;;;;;0.93;0.90;;;;;;;27.02;35.75;99102.44;5030866;28;20043;-75
2021/07/22 07:44:26;;;;;;;0.10;0.10;;;;;;;26.92;36.24;99095.72;5030598;28;20397;-75
2021/07/22 07:46:51;;;;;;;0.35;0.35;;;;;;;26.89;36.95;99097.28;5031180;28;20041;-75
2021/07/22 07:49:17;;;;;;;0.03;0.03;;;;;;;26.89;36.85;99104.72;5030603;28;20553;-75
2021/07/22 07:51:42;;;;;;;0.20;0.20;;;;;;;26.94;36.53;99098.84;5030643;28;20037;-75
2021/07/22 07:54:08;;;;;;;0.30;0.30;;;;;;;26.97;36.53;99104.38;5029555;28;20541;-77
2021/07/22 07:56:33;;;;;;;0.30;0.30;;;;;;;26.94;36.39;99105.16;5029626;28;20110;-76
2021/07/22 07:58:58;;;;;;;0.10;0.10;;;;;;;26.91;35.92;99100.41;5030622;28;20447;-76
2021/07/22 08:01:27;;;;;;;0.98;0.47;;;;;;;26.89;36.07;99089.06;5031924;28;20128;-75
2021/07/22 08:03:52;;;;;;;0.30;0.30;;;;;;;26.78;36.49;99099.97;5034852;28;20021;-74
2021/07/22 08:06:18;;;;;;;0.22;0.22;;;;;;;26.71;36.34;99096.38;5034265;28;20035;-76
2021/07/22 08:08:43;;;;;;;0.35;0.35;;;;;;;26.69;36.28;99102.25;5033535;28;20025;-75
2021/07/22 08:11:09;;;;;;;0.28;0.28;;;;;;;26.71;36.89;99096.38;5034262;28;20044;-76
2021/07/22 08:13:34;;;;;;;0.65;0.52;;;;;;;26.77;36.94;99098.41;5034765;28;20402;-75
2021/07/22 08:15:59;;;;;;;0.17;0.17;;;;;;;26.77;36.61;99092.91;5034615;28;20034;-76
2021/07/22 08:18:25;;;;;;;0.35;0.35;;;;;;;26.75;36.11;99098.00;5034395;28;20061;-76
2021/07/22 08:20:50;;;;;;;0.15;0.15;;;;;;;26.84;35.93;99098.44;5034578;28;20026;-76
2021/07/22 08:23:16;;;;;;;0.10;0.10;;;;;;;26.91;36.62;99085.94;5034024;28;20029;-76
2021/07/22 08:25:41;;;;;;;1.85;0.15;;;;;;;26.98;36.96;99096.94;5034612;28;20080;-77
2021/07/22 08:28:07;;;;;;;1.27;0.52;;;;;;;26.89;36.16;99094.56;5033046;28;20076;-77
2021/07/22 08:30:33;;;;;;;0.30;0.30;;;;;;;26.89;35.63;99096.50;5034592;28;20104;-77
2021/07/22 08:32:58;;;;;;;0.20;0.20;;;;;;;26.87;34.73;99104.31;5035047;28;20025;-77
2021/07/22 08:35:24;;;;;;;0.20;0.20;;;;;;;26.80;35.19;99100.38;5033911;28;20415;-76
2021/07/22 08:37:49;;;;;;;0.20;0.20;;;;;;;26.73;35.48;99096.78;5033916;28;20025;-77
2021/07/22 08:40:15;;;;;;;0.55;0.55;;;;;;;26.73;36.56;99089.31;5034115;28;20026;-77
2021/07/22 08:42:44;;;;;;;0.32;0.32;;;;;;;26.79;36.75;99093.31;5034252;28;20100;-77
2021/07/22 08:45:10;;;;;;;0.52;0.52;;;;;;;26.88;35.91;99090.22;5033910;28;20520;-78
2021/07/22 08:47:36;;;;;;;0.65;0.65;;;;;;;26.94;36.10;99094.16;5034184;28;20033;-78
2021/07/22 08:50:04;;;;;;;0.38;0.38;;;;;;;26.99;35.68;99074.59;5032954;28;20458;-77
2021/07/22 08:52:29;;;;;;;0.47;0.47;;;;;;;26.91;35.33;99083.19;5034175;28;20078;-77
2021/07/22 08:54:56;;;;;;;0.40;0.40;;;;;;;26.95;35.69;99090.25;5034110;28;20108;-77
2021/07/22 08:57:29;;;;;;;0.13;0.13;;;;;;;27.00;35.38;99078.91;5033705;28;20075;-77
2021/07/22 08:59:57;;;;;;;0.10;0.10;;;;;;;27.08;35.21;99070.69;5033715;28;20510;-77
2021/07/22 09:02:23;;;;;;;0.73;0.22;;;;;;;27.13;34.73;99071.09;5032509;28;20051;-77
2021/07/22 09:05:00;;;;;;;0.00;0.00;;;;;;;27.31;35.41;99056.63;5033603;28;20106;-78
2021/07/22 09:07:27;;;;;;;1.60;1.50;;;;;;;27.42;34.68;99064.94;5033609;28;20029;-77
2021/07/22 09:10:05;;;;;;;0.38;0.38;;;;;;;27.60;34.38;99063.00;5033827;28;20025;-77
2021/07/22 09:12:36;;;;;;;;;;;;;;;27.62;34.12;99068.09;5033184;28;20546;-77
2021/07/22 09:15:03;;;;;;;1.77;0.73;;;;;;;27.66;34.76;99057.91;5033727;28;19909;-78
2021/07/22 09:17:28;;;;;;;21.60;2.03;;;;;;;27.75;34.26;99052.78;5033259;28;20033;-78
2021/07/22 09:19:54;;;;;;;0.60;0.25;;;;;;;27.74;33.76;99055.94;5033488;28;20029;-77
2021/07/22 09:22:33;;;;;;;0.30;0.17;;;;;;;27.64;34.84;99041.78;5033087;28;20144;-78
2021/07/22 09:24:58;;;;;;;0.40;0.32;;;;;;;27.71;33.72;99051.22;5033409;28;20503;-77
2021/07/22 09:27:42;;;;;;;0.73;0.73;;;;;;;27.78;33.83;99051.22;5032836;28;20025;-77
2021/07/22 09:30:09;;;;;;;2.47;0.25;;;;;;;27.76;34.10;99054.34;5033348;28;20108;-76
2021/07/22 09:32:36;;;;;;;0.80;0.73;;;;;;;27.80;33.88;99040.63;5031848;28;20094;-75
2021/07/22 09:35:21;;;;;;;0.10;0.10;;;;;;;27.82;34.03;99046.53;5033579;28;20029;-78
2021/07/22 09:37:52;;;;;;;0.20;0.20;;;;;;;27.77;33.97;99017.47;5033077;28;20084;-76
2021/07/22 09:40:26;;;;;;;0.65;0.40;;;;;;;27.66;34.20;99029.63;5032611;28;20025;-77
2021/07/22 09:42:55;;;;;;;3.30;0.90;;;;;;;27.53;33.46;99035.50;5031831;28;20117;-76
2021/07/22 09:45:26;;;;;;;0.28;0.28;;;;;;;27.48;33.85;99028.44;5032787;28;20037;-77
2021/07/22 09:47:56;;;;;;;0.30;0.30;;;;;;;27.58;35.19;99026.88;5032969;28;20041;-76
2021/07/22 09:50:24;;;;;;;0.00;0.00;;;;;;;27.67;34.54;99036.69;5032703;28;20037;-77
2021/07/22 09:53:07;;;;;;;0.10;0.10;;;;;;;27.69;33.53;99029.63;5032915;28;20030;-77
2021/07/22 09:55:34;;;;;;;0.20;0.10;;;;;;;27.75;34.00;99028.06;5032425;28;20416;-77
2021/07/22 09:58:10;;;;;;;0.22;0.22;;;;;;;27.81;33.24;99033.94;5032449;28;20033;-76
2021/07/22 10:00:43;;;;;;;0.10;0.10;;;;;;;27.80;33.73;99021.38;5032554;28;20025;-77
2021/07/22 10:03:13;;;;;;;0.25;0.25;;;;;;;27.88;33.16;99011.16;5031275;28;20026;-77
2021/07/22 10:05:40;;;;;;;0.30;0.30;;;;;;;27.82;33.79;99021.78;5031400;28;20032;-77
2021/07/22 10:08:07;;;;;;;0.10;0.10;;;;;;;27.77;34.44;99011.16;5031283;28;20021;-77
2021/07/22 10:10:34;;;;;;;0.00;0.00;;;;;;;27.81;34.60;99011.97;5032371;28;20079;-77
2021/07/22 10:13:02;;;;;;;0.20;0.20;;;;;;;27.88;34.50;99014.72;5032925;28;20124;-77
2021/07/22 10:15:31;;;;;;;0.00;0.00;;;;;;;27.94;33.67;99009.59;5031397;28;20097;-77
2021/07/22 10:17:58;;;;;;;0.15;0.15;;;;;;;27.99;33.91;99002.91;5031234;28;20182;-76
2021/07/22 10:20:28;;;;;;;0.00;0.00;;;;;;;28.03;33.11;99011.94;5030852;28;20412;-76
2021/07/22 10:22:53;;;;;;;0.00;0.00;;;;;;;28.01;32.87;99001.34;5032631;28;20037;-76
2021/07/22 10:25:19;;;;;;;0.32;0.32;;;;;;;28.05;33.29;99006.84;5031715;28;20054;-76
2021/07/22 10:27:45;;;;;;;0.03;0.03;;;;;;;28.03;33.01;99006.47;5030847;28;20025;-76
2021/07/22 10:30:16;;;;;;;0.10;0.10;;;;;;;28.09;32.96;99011.16;5032137;28;20038;-75
2021/07/22 10:32:51;;;;;;;0.28;0.10;;;;;;;28.09;32.00;98999.41;5030842;28;20030;-75
2021/07/22 10:35:21;;;;;;;0.10;0.10;;;;;;;28.10;32.52;99009.22;5031842;28;20025;-76
2021/07/22 10:38:14;;;;;;;0.35;0.20;;;;;;;28.04;31.39;99002.50;5032475;28;20032;-76
2021/07/22 10:40:59;;;;;;;0.63;0.47;;;;;;;27.98;32.62;99002.13;5032468;28;20179;-77
2021/07/22 10:43:43;;;;;;;0.03;0.03;;;;;;;27.96;32.63;98996.25;5031890;28;20428;-77
2021/07/22 10:46:13;;;;;;;0.25;0.25;;;;;;;27.94;31.70;99002.16;5032185;28;20104;-77
2021/07/22 10:48:40;;;;;;;0.43;0.43;;;;;;;27.86;31.96;99008.03;5030759;28;20025;-77
2021/07/22 10:51:16;;;;;;;0.00;0.00;;;;;;;27.85;31.76;98996.25;5031651;28;20033;-76
2021/07/22 10:53:43;;;;;;;0.00;0.00;;;;;;;27.86;32.16;98999.81;5031609;28;20036;-77
2021/07/22 10:56:13;;;;;;;;;;;;;;;27.82;32.45;99008.06;5030780;28;20477;-77
2021/07/22 10:58:38;;;;;;;0.35;0.35;;;;;;;27.77;32.50;99011.16;5031578;28;19913;-77
2021/07/22 11:01:06;;;;;;;0.90;0.88;;;;;;;27.72;31.85;99008.81;5030767;28;20037;-77
2021/07/22 11:03:34;;;;;;;0.00;0.00;;;;;;;27.69;32.43;99010.41;5031282;28;20035;-77
2021/07/22 11:06:08;;;;;;;0.65;0.47;;;;;;;27.69;32.83;99002.16;5031613;28;20472;-76
2021/07/22 11:08:38;;;;;;;0.17;0.17;;;;;;;27.69;31.80;99004.13;5031183;28;20025;-77
2021/07/22 11:11:08;;;;;;;0.05;0.05;;;;;;;27.67;31.90;99003.72;5031486;28;20032;-78
2021/07/22 11:13:36;;;;;;;0.20;0.20;;;;;;;27.68;32.37;99000.59;5031294;28;20064;-77
2021/07/22 11:16:04;;;;;;;0.13;0.13;;;;;;;27.76;33.02;99004.13;5030156;28;20030;-77
2021/07/22 11:18:44;;;;;;;0.20;0.20;;;;;;;27.85;32.53;99003.72;5031182;28;20033;-76
2021/07/22 11:21:15;;;;;;;0.32;0.32;;;;;;;27.88;32.40;99000.97;5031289;28;20041;-77
2021/07/22 11:23:41;;;;;;;0.00;0.00;;;;;;;27.85;31.63;98996.25;5031445;28;20026;-77
2021/07/22 11:26:07;;;;;;;0.30;0.30;;;;;;;27.84;33.02;98996.66;5030975;28;20041;-77
2021/07/22 11:28:32;;;;;;;0.10;0.10;;;;;;;27.85;32.49;98996.25;5031039;28;20033;-77
2021/07/22 11:31:08;;;;;;;0.00;0.00;;;;;;;27.85;31.67;98999.00;5031391;28;20397;-77
2021/07/22 11:33:38;;;;;;;0.00;0.00;;;;;;;27.87;31.87;98990.34;5031193;28;20017;-77